createdAt,value
2023-05-09T00:00:13.924Z,18.50
2023-05-09T00:01:13.115Z,18.70
2023-05-09T00:02:13.717Z,18.60
2023-05-09T00:03:14.431Z,18.80
2023-05-09T00:04:14.002Z,18.90
2023-05-09T00:05:13.446Z,18.80
2023-05-09T00:06:13.528Z,18.70
2023-05-09T00:07:13.966Z,18.80
2023-05-09T00:08:13.209Z,18.70
2023-05-09T00:09:13.137Z,18.50
2023-05-09T00:10:12.988Z,18.50
2023-05-09T00:11:13.207Z,18.60
2023-05-09T00:12:13.285Z,18.60
2023-05-09T00:13:13.733Z,18.50
2023-05-09T00:14:13.690Z,18.60
2023-05-09T00:15:14.015Z,18.30
2023-05-09T00:16:13.297Z,18.50
2023-05-09T00:17:13.457Z,18.40
2023-05-09T00:18:13.518Z,18.40
2023-05-09T00:19:13.652Z,18.40
2023-05-09T00:20:13.662Z,18.20
2023-05-09T00:21:13.797Z,18.30
2023-05-09T00:22:13.965Z,18.30
2023-05-09T00:23:13.139Z,18.30
2023-05-09T00:24:13.506Z,17.90
2023-05-09T00:25:13.666Z,18.30
2023-05-09T00:26:13.002Z,18.30
2023-05-09T00:27:13.202Z,18.10
2023-05-09T00:28:13.170Z,18.20
2023-05-09T00:29:13.177Z,18.40
2023-05-09T00:30:13.525Z,18.40
2023-05-09T00:31:13.512Z,18.40
2023-05-09T00:32:13.723Z,18.30
2023-05-09T00:33:13.884Z,18.30
2023-05-09T00:34:13.077Z,18.10
2023-05-09T00:35:13.408Z,18.00
2023-05-09T00:36:13.566Z,18.10
2023-05-09T00:37:13.651Z,18.10
2023-05-09T00:38:13.902Z,17.80
2023-05-09T00:39:12.964Z,18.00
2023-05-09T00:40:13.098Z,18.00
2023-05-09T00:41:13.314Z,18.10
2023-05-09T00:42:13.596Z,18.20
2023-05-09T00:43:14.036Z,18.10
2023-05-09T00:44:13.318Z,17.80
2023-05-09T00:45:13.650Z,18.10
2023-05-09T00:46:13.881Z,18.00
2023-05-09T00:47:12.875Z,18.10
2023-05-09T00:48:13.032Z,18.20
2023-05-09T00:49:13.275Z,18.10
2023-05-09T00:50:13.538Z,18.20
2023-05-09T00:51:13.374Z,17.80
2023-05-09T00:52:13.233Z,18.00
2023-05-09T00:53:13.309Z,18.10
2023-05-09T00:54:13.403Z,18.20
2023-05-09T00:55:13.997Z,18.10
2023-05-09T00:56:13.160Z,18.00
2023-05-09T00:57:13.037Z,18.00
2023-05-09T00:58:13.325Z,17.90
2023-05-09T00:59:13.655Z,17.90
2023-05-09T01:00:13.700Z,17.80
2023-05-09T01:01:13.952Z,17.80
2023-05-09T01:02:13.503Z,17.70
2023-05-09T01:03:13.680Z,17.60
2023-05-09T01:04:13.826Z,17.40
2023-05-09T01:05:15.254Z,17.60
2023-05-09T01:06:13.644Z,17.30
2023-05-09T01:07:13.832Z,17.30
2023-05-09T01:08:13.967Z,17.20
2023-05-09T01:09:12.857Z,17.40
2023-05-09T01:10:13.094Z,17.30
2023-05-09T01:11:13.044Z,17.40
2023-05-09T01:12:13.158Z,17.40
2023-05-09T01:13:13.131Z,17.50
2023-05-09T01:14:12.896Z,17.40
2023-05-09T01:15:13.078Z,17.20
2023-05-09T01:16:13.314Z,17.10
2023-05-09T01:17:13.312Z,16.90
2023-05-09T01:18:13.318Z,17.00
2023-05-09T01:19:13.390Z,17.30
2023-05-09T01:20:13.415Z,17.10
2023-05-09T01:21:13.773Z,17.00
2023-05-09T01:22:14.403Z,17.00
2023-05-09T01:23:13.448Z,17.10
2023-05-09T01:24:13.665Z,17.00
2023-05-09T01:25:14.071Z,17.10
2023-05-09T01:26:13.180Z,17.00
2023-05-09T01:27:13.354Z,17.00
2023-05-09T01:28:13.382Z,16.90
2023-05-09T01:29:13.426Z,17.00
2023-05-09T01:30:13.749Z,17.00
2023-05-09T01:31:13.918Z,17.00
2023-05-09T01:32:13.141Z,17.10
2023-05-09T01:33:13.120Z,17.10
2023-05-09T01:34:13.230Z,17.00
2023-05-09T01:35:13.631Z,16.60
2023-05-09T01:36:13.773Z,16.80
2023-05-09T01:37:13.854Z,16.90
2023-05-09T01:38:13.855Z,17.10
2023-05-09T01:39:13.966Z,17.10
2023-05-09T01:40:13.018Z,17.10
2023-05-09T01:41:13.342Z,17.10
2023-05-09T01:42:13.628Z,17.10
2023-05-09T01:43:13.889Z,16.90
2023-05-09T01:44:13.476Z,16.90
2023-05-09T01:45:13.747Z,16.90
2023-05-09T01:46:13.415Z,16.80
2023-05-09T01:47:13.933Z,16.80
2023-05-09T01:48:13.083Z,16.90
2023-05-09T01:49:13.124Z,16.90
2023-05-09T01:50:12.930Z,17.20
2023-05-09T01:51:12.892Z,17.00
2023-05-09T01:52:13.393Z,17.10
2023-05-09T01:53:13.503Z,17.00
2023-05-09T01:54:13.579Z,16.90
2023-05-09T01:55:13.843Z,17.00
2023-05-09T01:56:12.955Z,16.80
2023-05-09T01:57:13.013Z,16.80
2023-05-09T01:58:13.466Z,17.10
2023-05-09T01:59:13.393Z,17.00
2023-05-09T02:00:13.378Z,17.10
2023-05-09T02:01:13.478Z,17.10
2023-05-09T02:02:13.639Z,17.20
2023-05-09T02:03:14.087Z,17.20
2023-05-09T02:04:13.149Z,17.00
2023-05-09T02:05:13.576Z,17.10
2023-05-09T02:06:15.172Z,17.10
2023-05-09T02:07:13.695Z,17.20
2023-05-09T02:08:13.846Z,17.20
2023-05-09T02:09:13.006Z,17.10
2023-05-09T02:10:13.010Z,17.20
2023-05-09T02:11:12.959Z,16.90
2023-05-09T02:12:12.910Z,17.10
2023-05-09T02:13:13.009Z,16.80
2023-05-09T02:14:13.085Z,16.90
2023-05-09T02:15:13.483Z,16.70
2023-05-09T02:16:13.781Z,16.60
2023-05-09T02:17:13.719Z,16.50
2023-05-09T02:18:13.943Z,16.90
2023-05-09T02:19:13.320Z,17.10
2023-05-09T02:20:13.275Z,17.10
2023-05-09T02:21:13.701Z,17.10
2023-05-09T02:22:13.746Z,17.10
2023-05-09T02:23:14.012Z,17.40
2023-05-09T02:24:13.117Z,17.50
2023-05-09T02:25:13.511Z,17.40
2023-05-09T02:26:14.017Z,17.20
2023-05-09T02:27:13.039Z,17.10
2023-05-09T02:28:12.955Z,17.20
2023-05-09T02:29:12.965Z,17.20
2023-05-09T02:30:13.222Z,17.00
2023-05-09T02:31:13.267Z,16.90
2023-05-09T02:32:13.386Z,16.80
2023-05-09T02:33:13.705Z,17.00
2023-05-09T02:34:14.006Z,17.10
2023-05-09T02:35:13.140Z,17.00
2023-05-09T02:36:13.652Z,17.10
2023-05-09T02:37:13.862Z,17.10
2023-05-09T02:38:14.049Z,17.20
2023-05-09T02:39:12.883Z,17.20
2023-05-09T02:40:13.032Z,16.90
2023-05-09T02:41:13.119Z,16.40
2023-05-09T02:42:13.359Z,16.40
2023-05-09T02:43:13.520Z,16.60
2023-05-09T02:44:13.313Z,16.70
2023-05-09T02:45:13.700Z,16.80
2023-05-09T02:46:12.945Z,17.00
2023-05-09T02:47:13.205Z,16.80
2023-05-09T02:48:13.097Z,17.00
2023-05-09T02:49:22.769Z,17.20
2023-05-09T02:50:13.717Z,17.20
2023-05-09T02:51:13.957Z,17.20
2023-05-09T02:52:13.165Z,17.00
2023-05-09T02:53:13.099Z,16.90
2023-05-09T02:54:12.970Z,16.90
2023-05-09T02:55:13.265Z,16.80
2023-05-09T02:56:13.768Z,16.90
2023-05-09T02:57:13.942Z,16.70
2023-05-09T02:58:14.638Z,16.90
2023-05-09T02:59:13.351Z,16.50
2023-05-09T03:00:13.554Z,16.70
2023-05-09T03:01:13.945Z,16.70
2023-05-09T03:02:13.025Z,16.70
2023-05-09T03:03:13.616Z,16.70
2023-05-09T03:04:13.828Z,16.80
2023-05-09T03:05:13.923Z,17.10
2023-05-09T03:06:13.173Z,17.20
2023-05-09T03:07:13.184Z,17.20
2023-05-09T03:08:13.322Z,17.20
2023-05-09T03:09:13.425Z,17.10
2023-05-09T03:10:13.390Z,17.00
2023-05-09T03:11:13.343Z,16.90
2023-05-09T03:12:13.683Z,16.70
2023-05-09T03:13:13.759Z,16.70
2023-05-09T03:14:13.717Z,16.80
2023-05-09T03:15:13.839Z,16.90
2023-05-09T03:16:13.080Z,16.80
2023-05-09T03:17:13.150Z,16.80
2023-05-09T03:18:13.145Z,16.70
2023-05-09T03:19:13.227Z,16.70
2023-05-09T03:20:13.327Z,16.60
2023-05-09T03:21:13.429Z,16.70
2023-05-09T03:22:13.494Z,16.90
2023-05-09T03:23:13.893Z,17.00
2023-05-09T03:24:13.049Z,16.90
2023-05-09T03:25:13.584Z,17.10
2023-05-09T03:26:13.193Z,17.20
2023-05-09T03:27:13.159Z,17.30
2023-05-09T03:28:13.445Z,17.30
2023-05-09T03:29:13.728Z,17.30
2023-05-09T03:30:18.866Z,17.40
2023-05-09T03:31:14.135Z,17.40
2023-05-09T03:32:15.142Z,17.30
2023-05-09T03:33:13.424Z,17.20
2023-05-09T03:34:13.471Z,17.20
2023-05-09T03:35:13.826Z,17.20
2023-05-09T03:36:13.093Z,17.30
2023-05-09T03:37:13.115Z,17.60
2023-05-09T03:38:13.141Z,17.60
2023-05-09T03:39:13.302Z,17.50
2023-05-09T03:41:32.884Z,17.50
2023-05-09T03:42:13.073Z,17.50
2023-05-09T03:43:13.260Z,17.50
2023-05-09T03:44:13.340Z,17.50
2023-05-09T03:45:14.276Z,17.30
2023-05-09T03:46:13.475Z,17.50
2023-05-09T03:49:13.681Z,17.30
2023-05-09T03:49:44.511Z,17.40
2023-05-09T03:50:13.901Z,17.30
2023-05-09T03:51:13.021Z,17.10
2023-05-09T03:52:13.231Z,17.10
2023-05-09T03:53:13.423Z,17.00
2023-05-09T03:54:13.695Z,16.90
2023-05-09T03:55:14.128Z,17.00
2023-05-09T03:56:13.370Z,17.10
2023-05-09T03:57:13.225Z,17.00
2023-05-09T03:58:13.465Z,17.00
2023-05-09T03:59:13.507Z,17.20
2023-05-09T04:00:13.634Z,17.10
2023-05-09T04:01:13.692Z,17.10
2023-05-09T04:02:13.866Z,17.30
2023-05-09T04:03:13.258Z,17.10
2023-05-09T04:04:13.667Z,17.60
2023-05-09T04:05:14.422Z,17.60
2023-05-09T04:06:13.657Z,17.40
2023-05-09T04:07:13.836Z,17.40
2023-05-09T04:08:13.909Z,17.30
2023-05-09T04:09:13.051Z,17.40
2023-05-09T04:10:13.240Z,17.60
2023-05-09T04:11:13.483Z,17.70
2023-05-09T04:12:13.511Z,17.70
2023-05-09T04:13:23.818Z,17.30
2023-05-09T04:14:12.959Z,17.30
2023-05-09T04:15:13.382Z,17.30
2023-05-09T04:17:13.989Z,17.60
2023-05-09T04:18:12.986Z,18.00
2023-05-09T04:19:13.494Z,17.90
2023-05-09T04:20:41.431Z,17.90
2023-05-09T04:22:13.873Z,17.60
2023-05-09T04:23:13.901Z,17.50
2023-05-09T04:24:12.999Z,17.70
2023-05-09T04:25:14.001Z,17.70
2023-05-09T04:26:13.203Z,18.00
2023-05-09T04:27:13.269Z,18.00
2023-05-09T04:28:13.204Z,17.80
2023-05-09T04:29:13.200Z,17.70
2023-05-09T04:30:21.631Z,17.70
2023-05-09T04:31:13.971Z,17.50
2023-05-09T04:32:13.124Z,17.40
2023-05-09T04:33:13.209Z,17.60
2023-05-09T04:34:13.242Z,17.60
2023-05-09T04:35:13.959Z,18.00
2023-05-09T04:36:13.270Z,18.10
2023-05-09T04:37:13.418Z,18.20
2023-05-09T04:38:18.802Z,17.90
2023-05-09T04:39:13.731Z,18.10
2023-05-09T04:40:13.882Z,18.00
2023-05-09T04:41:13.037Z,18.10
2023-05-09T04:42:13.206Z,17.50
2023-05-09T04:43:13.488Z,17.70
2023-05-09T04:44:13.516Z,17.80
2023-05-09T04:45:13.924Z,17.90
2023-05-09T04:46:13.534Z,18.00
2023-05-09T04:47:13.496Z,17.70
2023-05-09T04:48:13.499Z,17.50
2023-05-09T04:49:13.663Z,17.70
2023-05-09T04:50:13.616Z,18.10
2023-05-09T04:51:13.673Z,18.20
2023-05-09T04:52:13.860Z,18.10
2023-05-09T04:53:13.869Z,18.10
2023-05-09T04:54:15.270Z,17.90
2023-05-09T04:55:13.882Z,18.10
2023-05-09T04:56:12.934Z,18.10
2023-05-09T04:57:17.925Z,18.20
2023-05-09T04:58:13.243Z,18.20
2023-05-09T04:59:13.287Z,18.00
2023-05-09T05:00:13.319Z,18.20
2023-05-09T05:01:13.201Z,18.00
2023-05-09T05:02:13.653Z,18.10
2023-05-09T05:03:13.906Z,18.30
2023-05-09T05:04:12.913Z,18.30
2023-05-09T05:05:12.983Z,18.20
2023-05-09T05:06:12.751Z,17.80
2023-05-09T05:07:14.021Z,18.20
2023-05-09T05:08:13.406Z,18.50
2023-05-09T05:09:13.471Z,18.70
2023-05-09T05:10:13.540Z,18.70
2023-05-09T05:11:13.437Z,18.50
2023-05-09T05:12:13.872Z,18.70
2023-05-09T05:13:13.976Z,18.60
2023-05-09T05:14:13.047Z,18.70
2023-05-09T05:15:13.211Z,18.80
2023-05-09T05:16:13.383Z,18.60
2023-05-09T05:17:13.567Z,18.40
2023-05-09T05:18:14.855Z,18.40
2023-05-09T05:19:14.088Z,18.40
2023-05-09T05:20:13.269Z,18.50
2023-05-09T05:21:13.300Z,18.50
2023-05-09T05:22:14.836Z,18.20
2023-05-09T05:23:13.120Z,18.40
2023-05-09T05:24:13.010Z,18.70
2023-05-09T05:25:13.393Z,18.70
2023-05-09T05:26:13.495Z,18.70
2023-05-09T05:27:13.284Z,18.70
2023-05-09T05:28:13.513Z,18.80
2023-05-09T05:29:13.491Z,18.70
2023-05-09T05:30:13.525Z,18.80
2023-05-09T05:31:13.560Z,18.80
2023-05-09T05:32:13.461Z,18.70
2023-05-09T05:33:13.357Z,18.90
2023-05-09T05:34:13.366Z,18.30
2023-05-09T05:35:13.976Z,18.50
2023-05-09T05:36:13.222Z,18.40
2023-05-09T05:37:13.347Z,18.40
2023-05-09T05:38:13.634Z,18.40
2023-05-09T05:39:13.586Z,18.60
2023-05-09T05:40:13.811Z,18.80
2023-05-09T05:41:13.848Z,18.90
2023-05-09T05:42:14.119Z,18.60
2023-05-09T05:43:13.282Z,18.30
2023-05-09T05:44:17.122Z,18.50
2023-05-09T05:45:13.321Z,18.70
2023-05-09T05:46:23.878Z,18.50
2023-05-09T05:47:13.029Z,18.50
2023-05-09T05:48:13.451Z,18.60
2023-05-09T05:49:13.409Z,18.30
2023-05-09T05:50:13.687Z,18.60
2023-05-09T05:51:13.842Z,18.40
2023-05-09T05:52:14.290Z,18.60
2023-05-09T05:53:13.712Z,18.50
2023-05-09T05:54:13.781Z,18.50
2023-05-09T05:55:14.301Z,18.50
2023-05-09T05:56:13.636Z,18.50
2023-05-09T05:57:13.975Z,18.70
2023-05-09T05:58:13.291Z,18.90
2023-05-09T05:59:13.719Z,19.10
2023-05-09T06:00:13.598Z,19.00
2023-05-09T06:01:13.755Z,18.90
2023-05-09T06:02:13.814Z,18.90
2023-05-09T06:03:19.106Z,19.10
2023-05-09T06:04:13.361Z,19.00
2023-05-09T06:05:14.080Z,19.30
2023-05-09T06:06:13.364Z,19.50
2023-05-09T06:07:13.755Z,19.30
2023-05-09T06:08:13.244Z,19.10
2023-05-09T06:09:13.289Z,19.30
2023-05-09T06:10:13.207Z,19.00
2023-05-09T06:11:13.460Z,19.30
2023-05-09T06:12:13.402Z,19.40
2023-05-09T06:13:13.614Z,19.40
2023-05-09T06:14:13.880Z,19.40
2023-05-09T06:15:13.644Z,19.40
2023-05-09T06:16:19.653Z,19.00
2023-05-09T06:17:13.555Z,18.50
2023-05-09T06:18:13.693Z,18.70
2023-05-09T06:19:13.813Z,18.40
2023-05-09T06:20:13.713Z,18.70
2023-05-09T06:21:13.643Z,18.90
2023-05-09T06:22:13.465Z,19.40
2023-05-09T06:23:13.754Z,19.10
2023-05-09T06:24:20.155Z,19.20
2023-05-09T06:25:13.319Z,19.40
2023-05-09T06:26:13.493Z,19.60
2023-05-09T06:27:13.444Z,19.80
2023-05-09T06:28:13.725Z,20.20
2023-05-09T06:29:14.027Z,20.20
2023-05-09T06:30:24.717Z,19.70
2023-05-09T06:31:13.224Z,19.60
2023-05-09T06:32:13.156Z,19.10
2023-05-09T06:33:13.526Z,19.80
2023-05-09T06:34:13.566Z,20.00
2023-05-09T06:35:13.940Z,20.20
2023-05-09T06:36:13.248Z,20.40
2023-05-09T06:37:13.125Z,20.50
2023-05-09T06:38:13.425Z,20.50
2023-05-09T06:39:13.662Z,20.50
2023-05-09T06:40:13.998Z,19.80
2023-05-09T06:41:13.162Z,20.40
2023-05-09T06:42:13.577Z,20.60
2023-05-09T06:43:13.459Z,20.80
2023-05-09T06:44:13.466Z,20.60
2023-05-09T06:45:14.170Z,20.70
2023-05-09T06:46:13.820Z,20.50
2023-05-09T06:47:13.757Z,20.60
2023-05-09T06:48:13.680Z,20.90
2023-05-09T06:49:13.861Z,21.10
2023-05-09T06:50:13.937Z,21.00
2023-05-09T06:51:12.917Z,21.00
2023-05-09T06:52:13.118Z,20.90
2023-05-09T06:53:13.170Z,20.90
2023-05-09T06:54:13.630Z,20.80
2023-05-09T06:55:13.807Z,19.90
2023-05-09T06:56:13.286Z,19.60
2023-05-09T06:57:13.239Z,19.90
2023-05-09T06:58:13.395Z,20.20
2023-05-09T06:59:13.286Z,20.60
2023-05-09T07:00:13.397Z,20.00
2023-05-09T07:01:14.201Z,20.40
2023-05-09T07:02:13.528Z,20.40
2023-05-09T07:03:13.551Z,19.90
2023-05-09T07:04:13.558Z,20.00
2023-05-09T07:05:13.816Z,20.00
2023-05-09T07:06:13.348Z,19.90
2023-05-09T07:07:13.616Z,19.80
2023-05-09T07:08:13.641Z,20.30
2023-05-09T07:09:13.674Z,19.90
2023-05-09T07:10:13.836Z,19.90
2023-05-09T07:11:13.847Z,20.50
2023-05-09T07:12:14.018Z,20.50
2023-05-09T07:13:13.241Z,20.70
2023-05-09T07:14:13.645Z,20.60
2023-05-09T07:15:15.568Z,20.10
2023-05-09T07:16:13.580Z,20.40
2023-05-09T07:17:22.984Z,20.70
2023-05-09T07:18:13.924Z,20.40
2023-05-09T07:19:13.309Z,20.20
2023-05-09T07:20:13.161Z,20.60
2023-05-09T07:21:13.108Z,20.40
2023-05-09T07:22:13.040Z,20.70
2023-05-09T07:23:13.277Z,20.80
2023-05-09T07:24:13.490Z,21.10
2023-05-09T07:25:13.649Z,21.60
2023-05-09T07:26:13.774Z,21.50
2023-05-09T07:27:14.049Z,21.20
2023-05-09T07:28:13.405Z,20.70
2023-05-09T07:29:13.521Z,20.60
2023-05-09T07:30:14.017Z,20.90
2023-05-09T07:31:14.214Z,20.60
2023-05-09T07:32:13.019Z,20.50
2023-05-09T07:33:13.352Z,20.40
2023-05-09T07:34:13.607Z,20.80
2023-05-09T07:35:14.123Z,20.40
2023-05-09T07:36:13.412Z,20.70
2023-05-09T07:37:15.366Z,20.50
2023-05-09T07:38:13.687Z,20.30
2023-05-09T07:39:13.724Z,20.20
2023-05-09T07:40:14.545Z,20.60
2023-05-09T07:41:13.055Z,20.10
2023-05-09T07:42:13.301Z,20.60
2023-05-09T07:43:13.304Z,20.70
2023-05-09T07:44:13.289Z,20.60
2023-05-09T07:45:19.447Z,20.50
2023-05-09T07:46:13.415Z,20.60
2023-05-09T07:47:13.307Z,20.80
2023-05-09T07:48:13.586Z,21.00
2023-05-09T07:49:13.897Z,20.40
2023-05-09T07:50:13.127Z,21.20
2023-05-09T07:51:13.080Z,20.90
2023-05-09T07:52:12.906Z,20.60
2023-05-09T07:53:12.781Z,21.10
2023-05-09T07:54:13.998Z,21.00
2023-05-09T07:55:13.260Z,21.20
2023-05-09T07:56:13.391Z,21.00
2023-05-09T07:57:13.334Z,20.70
2023-05-09T07:58:13.500Z,21.40
2023-05-09T07:59:13.772Z,21.70
2023-05-09T08:00:13.766Z,21.40
2023-05-09T08:01:13.753Z,21.60
2023-05-09T08:02:13.936Z,21.40
2023-05-09T08:03:13.037Z,22.00
2023-05-09T08:04:13.186Z,21.50
2023-05-09T08:05:13.904Z,21.00
2023-05-09T08:06:13.284Z,21.50
2023-05-09T08:07:13.231Z,21.60
2023-05-09T08:08:13.482Z,21.50
2023-05-09T08:09:13.288Z,21.00
2023-05-09T08:10:13.316Z,20.60
2023-05-09T08:11:13.273Z,20.80
2023-05-09T08:12:13.352Z,20.80
2023-05-09T08:13:13.516Z,20.80
2023-05-09T08:14:15.551Z,21.00
2023-05-09T08:15:14.164Z,20.90
2023-05-09T08:16:13.516Z,21.00
2023-05-09T08:17:13.687Z,21.00
2023-05-09T08:18:13.655Z,21.30
2023-05-09T08:19:13.740Z,21.20
2023-05-09T08:20:13.593Z,21.40
2023-05-09T08:21:13.550Z,21.60
2023-05-09T08:22:13.897Z,21.80
2023-05-09T08:23:13.062Z,21.20
2023-05-09T08:24:13.037Z,20.90
2023-05-09T08:25:13.214Z,21.10
2023-05-09T08:26:13.263Z,20.90
2023-05-09T08:27:13.421Z,20.80
2023-05-09T08:28:13.482Z,21.00
2023-05-09T08:29:13.514Z,21.60
2023-05-09T08:30:13.782Z,21.30
2023-05-09T08:31:13.722Z,21.00
2023-05-09T08:32:13.900Z,20.90
2023-05-09T08:33:13.003Z,20.20
2023-05-09T08:34:13.035Z,20.60
2023-05-09T08:35:13.140Z,20.80
2023-05-09T08:36:13.417Z,20.90
2023-05-09T08:37:15.086Z,20.80
2023-05-09T08:38:13.560Z,21.30
2023-05-09T08:39:13.735Z,21.50
2023-05-09T08:40:14.174Z,21.60
2023-05-09T08:41:13.182Z,21.90
2023-05-09T08:42:13.171Z,21.80
2023-05-09T08:43:13.424Z,21.80
2023-05-09T08:44:13.433Z,21.90
2023-05-09T08:45:13.528Z,21.70
2023-05-09T08:46:13.621Z,20.50
2023-05-09T08:47:13.652Z,21.00
2023-05-09T08:48:13.652Z,20.50
2023-05-09T08:49:35.024Z,20.90
2023-05-09T08:50:13.415Z,21.30
2023-05-09T08:51:13.803Z,21.30
2023-05-09T08:52:13.917Z,21.50
2023-05-09T08:53:12.936Z,21.70
2023-05-09T08:54:12.984Z,22.00
2023-05-09T08:55:12.982Z,21.60
2023-05-09T08:56:28.155Z,21.60
2023-05-09T08:57:13.076Z,21.40
2023-05-09T08:58:13.442Z,21.30
2023-05-09T08:59:13.584Z,21.50
2023-05-09T09:00:14.561Z,21.70
2023-05-09T09:01:13.578Z,21.50
2023-05-09T09:02:14.006Z,21.20
2023-05-09T09:03:13.244Z,21.70
2023-05-09T09:04:13.327Z,21.80
2023-05-09T09:05:29.063Z,22.30
2023-05-09T09:06:13.919Z,22.10
2023-05-09T09:07:12.848Z,22.20
2023-05-09T09:08:18.986Z,22.30
2023-05-09T09:09:17.966Z,21.80
2023-05-09T09:10:13.713Z,21.70
2023-05-09T09:11:17.884Z,21.60
2023-05-09T09:12:13.934Z,22.30
2023-05-09T09:13:13.214Z,22.30
2023-05-09T09:14:13.489Z,22.60
2023-05-09T09:15:13.868Z,22.60
2023-05-09T09:16:13.960Z,22.40
2023-05-09T09:17:13.113Z,22.90
2023-05-09T09:18:13.160Z,22.30
2023-05-09T09:19:13.199Z,22.00
2023-05-09T09:20:18.494Z,22.20
2023-05-09T09:21:13.810Z,23.10
2023-05-09T09:22:13.827Z,23.20
2023-05-09T09:23:14.020Z,23.80
2023-05-09T09:24:13.050Z,23.90
2023-05-09T09:25:12.976Z,23.00
2023-05-09T09:26:13.403Z,22.90
2023-05-09T09:27:13.525Z,22.70
2023-05-09T09:28:13.509Z,22.70
2023-05-09T09:29:19.902Z,23.30
2023-05-09T09:30:13.954Z,23.40
2023-05-09T09:32:13.558Z,23.30
2023-05-09T09:33:13.885Z,23.00
2023-05-09T09:34:12.942Z,22.90
2023-05-09T09:35:13.001Z,23.20
2023-05-09T09:36:13.193Z,22.20
2023-05-09T09:37:18.874Z,22.10
2023-05-09T09:38:13.902Z,22.50
2023-05-09T09:39:12.956Z,22.50
2023-05-09T09:40:13.162Z,23.20
2023-05-09T09:41:13.401Z,23.60
2023-05-09T09:42:13.675Z,22.80
2023-05-09T09:43:13.941Z,23.10
2023-05-09T09:44:12.895Z,23.90
2023-05-09T09:45:13.015Z,24.10
2023-05-09T09:46:28.547Z,23.00
2023-05-09T09:47:13.448Z,22.90
2023-05-09T09:48:13.641Z,22.70
2023-05-09T09:49:13.714Z,22.90
2023-05-09T09:50:14.099Z,23.30
2023-05-09T09:51:13.259Z,23.50
2023-05-09T09:52:13.332Z,23.40
2023-05-09T09:53:13.324Z,23.50
2023-05-09T09:54:23.414Z,23.00
2023-05-09T09:55:13.958Z,22.50
2023-05-09T09:56:13.154Z,23.10
2023-05-09T09:57:13.198Z,23.00
2023-05-09T09:58:13.148Z,22.80
2023-05-09T09:59:13.218Z,22.50
2023-05-09T10:00:13.552Z,22.80
2023-05-09T10:01:14.021Z,23.30
2023-05-09T10:02:13.387Z,23.60
2023-05-09T10:03:13.683Z,23.80
2023-05-09T10:04:18.829Z,24.10
2023-05-09T10:05:14.200Z,24.50
2023-05-09T10:06:14.074Z,24.70
2023-05-09T10:07:14.858Z,24.70
2023-05-09T10:08:13.240Z,23.80
2023-05-09T10:09:13.373Z,23.90
2023-05-09T10:10:18.881Z,22.90
2023-05-09T10:11:13.038Z,21.90
2023-05-09T10:12:13.676Z,22.50
2023-05-09T10:13:18.780Z,22.70
2023-05-09T10:14:14.201Z,21.90
2023-05-09T10:15:13.222Z,22.70
2023-05-09T10:16:13.421Z,23.50
2023-05-09T10:17:13.551Z,23.50
2023-05-09T10:18:14.056Z,23.50
2023-05-09T10:19:13.349Z,23.80
2023-05-09T10:20:13.612Z,23.90
2023-05-09T10:21:14.250Z,24.50
2023-05-09T10:22:23.349Z,24.00
2023-05-09T10:23:13.640Z,23.80
2023-05-09T10:24:13.636Z,24.50
2023-05-09T10:25:13.907Z,24.50
2023-05-09T10:26:13.447Z,24.20
2023-05-09T10:27:13.496Z,24.50
2023-05-09T10:28:13.358Z,24.50
2023-05-09T10:29:13.336Z,23.40
2023-05-09T10:30:13.706Z,23.50
2023-05-09T10:31:33.681Z,23.20
2023-05-09T10:32:14.006Z,23.60
2023-05-09T10:33:12.979Z,24.10
2023-05-09T10:34:13.101Z,24.30
2023-05-09T10:35:13.840Z,24.60
2023-05-09T10:36:13.319Z,23.90
2023-05-09T10:37:13.274Z,23.90
2023-05-09T10:38:13.773Z,23.50
2023-05-09T10:39:13.791Z,23.50
2023-05-09T10:40:13.882Z,23.00
2023-05-09T10:41:13.016Z,23.60
2023-05-09T10:42:13.378Z,23.40
2023-05-09T10:43:13.309Z,22.80
2023-05-09T10:44:13.449Z,23.60
2023-05-09T10:45:14.104Z,23.70
2023-05-09T10:46:13.552Z,24.20
2023-05-09T10:47:14.004Z,25.10
2023-05-09T10:48:13.065Z,25.30
2023-05-09T10:49:18.394Z,24.40
2023-05-09T10:50:13.559Z,24.10
2023-05-09T10:51:18.740Z,23.50
2023-05-09T10:52:13.986Z,23.90
2023-05-09T10:53:13.208Z,23.50
2023-05-09T10:54:13.259Z,24.30
2023-05-09T10:55:13.564Z,24.10
2023-05-09T10:56:13.641Z,23.80
2023-05-09T10:57:13.559Z,24.80
2023-05-09T10:58:13.485Z,24.80
2023-05-09T10:59:13.378Z,25.30
2023-05-09T11:00:14.845Z,24.50
2023-05-09T11:01:14.213Z,24.10
2023-05-09T11:02:13.715Z,24.60
2023-05-09T11:03:13.912Z,25.20
2023-05-09T11:04:23.258Z,25.40
2023-05-09T11:05:13.591Z,25.40
2023-05-09T11:06:13.762Z,24.00
2023-05-09T11:07:13.909Z,23.70
2023-05-09T11:08:13.029Z,24.00
2023-05-09T11:09:12.957Z,24.10
2023-05-09T11:10:13.107Z,24.60
2023-05-09T11:11:13.125Z,24.80
2023-05-09T11:12:13.104Z,24.80
2023-05-09T11:13:13.218Z,23.90
2023-05-09T11:14:13.474Z,23.90
2023-05-09T11:15:13.946Z,24.20
2023-05-09T11:16:13.173Z,24.80
2023-05-09T11:17:13.308Z,25.50
2023-05-09T11:18:13.549Z,24.60
2023-05-09T11:19:13.835Z,24.40
2023-05-09T11:20:13.733Z,23.90
2023-05-09T11:21:14.109Z,24.50
2023-05-09T11:22:13.252Z,24.00
2023-05-09T11:23:18.704Z,23.20
2023-05-09T11:24:14.064Z,24.00
2023-05-09T11:25:23.017Z,24.20
2023-05-09T11:26:13.365Z,24.30
2023-05-09T11:27:13.486Z,23.80
2023-05-09T11:28:20.033Z,23.20
2023-05-09T11:29:18.755Z,23.50
2023-05-09T11:30:14.277Z,23.50
2023-05-09T11:31:18.899Z,24.20
2023-05-09T11:32:13.297Z,24.20
2023-05-09T11:33:13.608Z,24.30
2023-05-09T11:34:13.754Z,24.30
2023-05-09T11:35:14.002Z,24.40
2023-05-09T11:36:13.158Z,24.10
2023-05-09T11:37:13.177Z,24.40
2023-05-09T11:38:13.334Z,24.40
2023-05-09T11:39:13.372Z,24.80
2023-05-09T11:40:13.386Z,23.40
2023-05-09T11:41:13.587Z,23.80
2023-05-09T11:42:13.770Z,23.40
2023-05-09T11:43:13.896Z,23.90
2023-05-09T11:44:13.170Z,23.70
2023-05-09T11:45:13.701Z,23.80
2023-05-09T11:46:13.037Z,24.00
2023-05-09T11:47:13.184Z,23.70
2023-05-09T11:48:13.609Z,23.70
2023-05-09T11:49:13.916Z,23.90
2023-05-09T11:50:13.250Z,23.90
2023-05-09T11:51:13.218Z,23.30
2023-05-09T11:52:13.334Z,23.50
2023-05-09T11:53:13.461Z,23.10
2023-05-09T11:54:13.530Z,23.40
2023-05-09T11:55:14.360Z,23.00
2023-05-09T11:56:23.781Z,23.40
2023-05-09T11:57:13.723Z,22.90
2023-05-09T11:58:13.999Z,22.90
2023-05-09T11:59:13.392Z,22.80
2023-05-09T12:00:13.466Z,22.80
2023-05-09T12:01:13.613Z,23.00
2023-05-09T12:02:13.755Z,23.30
2023-05-09T12:03:13.872Z,22.90
2023-05-09T12:04:13.270Z,22.50
2023-05-09T12:05:13.676Z,22.10
2023-05-09T12:06:24.303Z,22.80
2023-05-09T12:07:14.137Z,23.20
2023-05-09T12:08:13.337Z,22.80
2023-05-09T12:09:13.527Z,22.60
2023-05-09T12:10:13.644Z,23.10
2023-05-09T12:11:13.856Z,22.90
2023-05-09T12:12:15.255Z,22.60
2023-05-09T12:13:18.611Z,22.80
2023-05-09T12:14:13.957Z,23.10
2023-05-09T12:15:13.016Z,22.50
2023-05-09T12:16:13.324Z,22.60
2023-05-09T12:17:18.538Z,23.00
2023-05-09T12:18:13.863Z,23.40
2023-05-09T12:19:14.166Z,23.80
2023-05-09T12:20:13.266Z,24.10
2023-05-09T12:21:13.304Z,24.40
2023-05-09T12:22:13.258Z,24.40
2023-05-09T12:23:13.206Z,24.70
2023-05-09T12:24:13.270Z,24.60
2023-05-09T12:25:13.503Z,24.60
2023-05-09T12:26:13.786Z,24.10
2023-05-09T12:27:13.981Z,23.30
2023-05-09T12:28:13.220Z,23.40
2023-05-09T12:29:13.291Z,22.80
2023-05-09T12:30:13.363Z,22.70
2023-05-09T12:31:13.523Z,23.10
2023-05-09T12:32:13.717Z,22.70
2023-05-09T12:33:13.646Z,22.80
2023-05-09T12:34:23.856Z,23.10
2023-05-09T12:35:14.384Z,22.90
2023-05-09T12:36:13.542Z,22.90
2023-05-09T12:37:44.615Z,23.10
2023-05-09T12:38:13.907Z,23.20
2023-05-09T12:39:13.083Z,22.30
2023-05-09T12:40:13.203Z,23.00
2023-05-09T12:41:31.001Z,23.00
2023-05-09T12:42:13.655Z,22.50
2023-05-09T12:43:13.682Z,22.90
2023-05-09T12:44:13.975Z,23.50
2023-05-09T12:45:13.001Z,23.90
2023-05-09T12:46:13.242Z,24.10
2023-05-09T12:47:13.510Z,24.30
2023-05-09T12:48:33.266Z,23.60
2023-05-09T12:49:13.467Z,23.70
2023-05-09T12:50:13.448Z,23.80
2023-05-09T12:51:13.614Z,24.00
2023-05-09T12:52:23.628Z,23.50
2023-05-09T12:53:13.553Z,23.50
2023-05-09T12:54:13.671Z,23.30
2023-05-09T12:55:13.793Z,24.10
2023-05-09T12:56:12.837Z,24.50
2023-05-09T12:57:13.895Z,25.40